Tiempo atmosférico en la estación meteorológica de Liceras, Soria (1150 m.)



Fecha
DESCASC
Temp. máxima en grados centígrados (hora)
DESCASC
Temp. mínima en grados centígrados (hora)
DESCASC
Temp. media en grados centígrados
DESCASC
Racha de viento máxima en m/sg (hora)
DESCASC
Velocidad máxima media en intervalos de 10 minutos(hora)
DESCASC
Precipitaciones diarias en mm
DESCASC
Precipitaciones de 00:00 a 06:00 en mm
DESCASC
Precipitaciones de 06:00 a 12:00 en mm
DESCASC
Precipitaciones de 12:00 a 18:00 en mm
DESCASC
Precipitaciones de 18:00 a 24:00 en mm
DESCASC
25-04-2019 9.9 (16:30) 1 (09:30) 5.4 18.06 (04:00) 11.67 (18:20) 7.4 4.6 1.8 0.6 0.4
24-04-2019 11.5 (17:50) 1 (05:40) 6.3 19.72 (20:10) 11.67 (20:30) 4.6 0 0.2 0.2 4.2
23-04-2019 9.8 (17:40) 2.2 (19:30) 6 15.83 (18:00) 10.83 (19:20) 3.8 0 0 2.6 1.2
22-04-2019 12.9 (16:30) 5.1 (00:00) 9 7.22 (00:20) 5 (00:30) 0.4 0 0 0 0.4
21-04-2019 7.6 (14:30) 4.1 (00:00) 5.8 9.17 (01:40) 6.67 (01:50) 0 0 0 0 0
20-04-2019 15.5 (17:20) 4.8 (00:00) 10.2 18.33 (13:20) 12.5 (13:20) 0 0 0 0 0
19-04-2019 10.6 (17:50) 5.5 (00:00) 8.1 19.17 (20:00) 12.5 (19:30) 1.6 0.2 0 1.4 0
18-04-2019 11.9 (01:40) 4.9 (00:00) 8.4 16.67 (04:20) 10.28 (03:40) 24 2.4 10.4 6.2 5
17-04-2019 19.1 (16:20) 8.8 (00:00) 14 15.28 (17:40) 10.56 (17:40) 0.4 0 0 0 0.4
16-04-2019 17.3 (17:00) 3.5 (00:00) 10.4 11.11 (17:10) 7.78 (14:50) 0 0 0 0 0
15-04-2019 19.4 (17:40) 7.1 (00:00) 13.2 17.22 (18:40) 11.39 (18:40) 1.8 0 0 0 1.8
14-04-2019 17.9 (18:30) 8 (00:00) 12.9 10.83 (06:50) 8.06 (06:50) 0 0 0 0 0
13-04-2019 17.3 (18:00) 1.2 (00:00) 9.2 9.17 (19:00) 5.83 (10:30) 0 0 0 0 0
12-04-2019 13.4 (18:10) -1.3 (-00:0) 6 10.83 (14:10) 6.39 (14:40) 0 0 0 0 0
11-04-2019 -- (--) -- (--) -- -- (--) -- (--) -- 0 0 -- 0
10-04-2019 9.9 (17:30) 1.5 (00:00) 5.7 11.39 (05:00) 7.5 (05:50) 2.4 0.2 1.6 0.6 0
09-04-2019 7.7 (19:30) 2.7 (00:00) 5.2 15 (18:00) 11.39 (17:50) 0.6 0 0 0.6 0
08-04-2019 11.1 (17:10) 3.2 (00:00) 7.2 11.67 (15:50) 8.61 (16:00) 4.2 1 2.4 0.8 0
07-04-2019 8.5 (17:40) 0.2 (00:00) 4.4 14.44 (00:40) 9.72 (00:50) 1.6 0 0 0 1.6
06-04-2019 5.3 (17:30) 0 (00:00) 2.7 16.94 (17:40) 11.11 (17:40) 2.6 0.4 0.4 0.6 1.2
05-04-2019 6.7 (14:00) -1 (-00:0) 2.8 15.28 (14:50) 9.44 (14:50) 2 0 0.4 1.6 0
04-04-2019 9.8 (17:10) -3.6 (-00:0) 3.1 11.39 (12:40) 6.67 (17:40) 0 0 0 0 0
03-04-2019 8.9 (17:00) -2 (23:59) 3.4 13.89 (18:00) 9.17 (19:00) 0 0 0 0 0
02-04-2019 15 (17:20) 3.1 (00:00) 9 15 (18:40) 7.5 (14:00) 0.8 0 0 0 0.8
01-04-2019 14.8 (18:00) 4.2 (00:00) 9.5 7.22 (17:00) 5 (00:20) 0 0 0 0 0
31-03-2019 13.2 (12:40) 2.4 (00:00) 7.8 11.11 (13:30) 7.5 (13:00) 0 0 0 0 0
30-03-2019 15.5 (17:10) 3.4 (00:00) 9.5 10.56 (03:30) 6.39 (22:30) 0 0 0 0 0
29-03-2019 14.9 (15:30) 3.6 (00:00) 9.2 10.83 (10:40) 6.94 (10:50) 0 0 0 0 0
28-03-2019 16.6 (17:40) -1 (-00:0) 7.8 8.33 (08:00) 5.83 (22:30) 0 0 0 0 0
27-03-2019 16.5 (17:00) -1.2 (-00:0) 7.6 10.83 (18:20) 7.78 (18:20) 0 0 0 0 0

Gráficas

Temp. máximas Temp. mínimas Temp. medias Precipitaciones Rachas de viento máximas Velocidades máximas media en intervalos de 10 minutos

Datos horarios

Fecha y hora oficial Temperatura (ºC) Velocidad del viento (km/h) Dirección del viento Racha (km/h) Dirección de racha Precipitación (mm) Presión (hPa) Tendencia (hPa) Humedad (%)
2019-04-25 23:00:00 4.3 33 Oeste 55 Oeste 0 -- -- 85
2019-04-25 22:00:00 4.5 36 Oeste 57 Oeste 0 -- -- 83
2019-04-25 21:00:00 4.7 30 Oeste 56 Oeste 0 -- -- 77
2019-04-25 20:00:00 5.4 25 Oeste 55 Oeste 0.4 -- -- 78
2019-04-25 19:00:00 6.5 27 Oeste 63 Oeste 0 -- -- 69
2019-04-25 18:00:00 8 39 Oeste 56 Oeste 0.2 -- -- 61
2019-04-25 17:00:00 4.9 41 Oeste 57 Oeste 0.2 -- -- 73
2019-04-25 16:00:00 9.2 36 Oeste 53 Oeste 0 -- -- 55
2019-04-25 15:00:00 6.5 28 Oeste 46 Oeste 0 -- -- 74
2019-04-25 14:00:00 5.9 25 Oeste 53 Oeste 0 -- -- 76
2019-04-25 13:00:00 5.8 29 Oeste 52 Oeste 0.2 -- -- 80
2019-04-25 12:00:00 5 29 Oeste 41 Oeste 0.4 -- -- 79
2019-04-25 11:00:00 3.4 26 Oeste 49 Oeste 0 -- -- 86
2019-04-25 10:00:00 4.2 16 Sudoeste 48 Oeste 1 -- -- 81
2019-04-25 09:00:00 2.8 26 Oeste 50 Oeste 0.4 -- -- 87
2019-04-25 08:00:00 3.6 18 Oeste 38 Oeste 0 -- -- 84
2019-04-25 07:00:00 3.6 19 Oeste 45 Oeste 0 -- -- 82
2019-04-25 06:00:00 4 25 Oeste 40 Oeste 0 -- -- 82
2019-04-25 05:00:00 4.4 22 Oeste 54 Oeste 0 -- -- 82
2019-04-25 04:00:00 4.6 38 Oeste 65 Oeste 0.4 -- -- 82
2019-04-25 03:00:00 5.1 27 Oeste 50 Oeste 1 -- -- 95
2019-04-25 02:00:00 5.3 32 Oeste 49 Oeste 3.2 -- -- 93
2019-04-25 01:00:00 8 30 Sudoeste 60 Sudoeste 0 -- -- 83
2019-04-25 00:00:00 7.8 20 Sudoeste 35 Sudoeste 0 -- -- 82
2019-04-24 23:00:00 7 6 Oeste 22 Oeste 0 -- -- 89
2019-04-24 22:00:00 6.9 18 Oeste 50 Oeste 0.4 -- -- 88
2019-04-24 21:00:00 6.7 31 Oeste 71 Oeste 2.8 -- -- 88
2019-04-24 20:00:00 8.4 24 Sudoeste 57 Sudoeste 0.4 -- -- 84
2019-04-24 19:00:00 8.6 31 Sudoeste 55 Sudoeste 0.6 -- -- 78
2019-04-24 18:00:00 11.2 37 Sudoeste 65 Sudoeste 0 -- -- 65
2019-04-24 17:00:00 9.5 26 Sur 59 Sur 0 -- -- 72
2019-04-24 16:00:00 8.3 37 Sur 66 Sur 0 -- -- 73
2019-04-24 15:00:00 6.5 38 Sur 59 Sur 0 -- -- 76
2019-04-24 14:00:00 6.1 32 Sur 56 Sur 0.2 -- -- 77
2019-04-24 13:00:00 5.6 32 Sur 51 Sudoeste 0 -- -- 76
2019-04-24 12:00:00 3.8 31 Sur 51 Sudoeste 0 -- -- 81
2019-04-24 11:00:00 2.6 29 Sur 55 Sur 0 -- -- 83
2019-04-24 10:00:00 1.7 27 Sur 51 Sur 0.2 -- -- 88
2019-04-24 09:00:00 2.2 21 Sur 45 Sur 0 -- -- 84
2019-04-24 08:00:00 2.2 22 Sur 35 Sur 0 -- -- 83
2019-04-24 07:00:00 2.1 9 Sur 19 Sur 0 -- -- 83
2019-04-24 06:00:00 1.6 12 Oeste 20 Oeste 0 -- -- 84
2019-04-24 05:00:00 2 13 Oeste 28 Oeste 0 -- -- 87
2019-04-24 04:00:00 2.3 19 Oeste 31 Oeste 0 -- -- 86
2019-04-24 03:00:00 2.8 11 Oeste 27 Oeste 0 -- -- 81
2019-04-24 02:00:00 2.7 19 Oeste 34 Oeste 0 -- -- 86
2019-04-24 01:00:00 2.6 19 Oeste 28 Oeste 0 -- -- 88
2019-04-24 00:00:00 2.6 18 Oeste 34 Oeste 0 -- -- 89
2019-04-23 23:00:00 2.7 22 Oeste 35 Sudoeste 0 -- -- 89
2019-04-23 22:00:00 2.4 22 Oeste 35 Oeste 0.2 -- -- 90
2019-04-23 21:00:00 3.4 17 Oeste 34 Oeste 0 -- -- 84
2019-04-23 20:00:00 3.1 24 Oeste 49 Oeste 1 -- -- 90
2019-04-23 19:00:00 4.5 18 Oeste 40 Oeste 0 -- -- 79
2019-04-23 18:00:00 5.8 30 Oeste 57 Oeste 0 -- -- 75
2019-04-23 17:00:00 7.5 8 Noroeste 20 Oeste 0 -- -- 75
2019-04-23 16:00:00 5.2 18 Oeste 29 Oeste 1.2 -- -- 89
2019-04-23 15:00:00 5.6 13 Noroeste 27 Oeste 0.2 -- -- 91
2019-04-23 14:00:00 6.4 17 Oeste 38 Oeste 1 -- -- 92
2019-04-23 13:00:00 6.1 20 Noroeste 31 Sur 0.2 -- -- 91
2019-04-23 12:00:00 8.4 19 Sudoeste 32 Sur 0 -- -- 74
2019-04-23 11:00:00 7.9 13 Sur 30 Sudoeste 0 -- -- 84
2019-04-23 10:00:00 8.2 14 Sudoeste 27 Sudoeste 0 -- -- 77
2019-04-23 09:00:00 8.2 14 Sur 32 Sur 0 -- -- 72
2019-04-23 08:00:00 7.9 18 Sudoeste 31 Sudoeste 0 -- -- 72
2019-04-23 07:00:00 7.5 9 Sudoeste 30 Sur 0 -- -- 76
2019-04-23 06:00:00 8.2 14 Sur 40 Sudoeste 0 -- -- 73
2019-04-23 05:00:00 9.1 22 Sudoeste 35 Sudoeste 0 -- -- 63
2019-04-23 04:00:00 8.5 12 Sur 31 Sur 0 -- -- 79
2019-04-23 03:00:00 9.6 19 Sur 37 Sudoeste 0 -- -- 72
2019-04-23 02:00:00 8.4 9 Sur 24 Sur 0 -- -- 79
2019-04-23 01:00:00 8.6 12 Sur 27 Sur 0 -- -- 77
2019-04-23 00:00:00 8.2 11 Sur 24 Sur 0 -- -- 77
2019-04-22 23:00:00 8.1 15 Sur 24 Sur 0 -- -- 80
2019-04-22 22:00:00 8.6 13 Sur 23 Sur 0 -- -- 78
2019-04-22 21:00:00 8.7 16 Sur 25 Sur 0 -- -- 81
2019-04-22 20:00:00 8.5 14 Sur 21 Sur 0.2 -- -- 85
2019-04-22 19:00:00 9 14 Sur 19 Sur 0.2 -- -- 85
2019-04-22 18:00:00 10.4 4 Sur 13 Sudeste 0 -- -- 72
2019-04-22 17:00:00 11.9 5 Este 14 Sudeste 0 -- -- 63
2019-04-22 16:00:00 12.7 4 Nordeste 13 Oeste 0 -- -- 61
2019-04-22 15:00:00 12.3 4 Noroeste 21 Noroeste 0 -- -- 64
2019-04-22 14:00:00 11.2 12 Oeste 24 Noroeste 0 -- -- 65
2019-04-22 13:00:00 10.4 14 Noroeste 21 Noroeste 0 -- -- 69
2019-04-22 12:00:00 11.2 12 Noroeste 19 Noroeste 0 -- -- 63
2019-04-22 11:00:00 10.5 9 Noroeste 13 Noroeste 0 -- -- 67
2019-04-22 10:00:00 8.8 3 Sudoeste 6 Sudoeste 0 -- -- 70
2019-04-22 09:00:00 6.4 4 Este 7 Este 0 -- -- 86
2019-04-22 08:00:00 5.6 4 Sudeste 6 Sudeste 0 -- -- 91
2019-04-22 07:00:00 5.2 0 Calma 4 Este 0 -- -- 91
2019-04-22 06:00:00 5.2 3 Este 9 Sur 0 -- -- 90
2019-04-22 05:00:00 5.4 6 Sur 12 Sudeste 0 -- -- 87
2019-04-22 04:00:00 5.3 10 Sudeste 14 Sudeste 0 -- -- 88
2019-04-22 03:00:00 5.4 11 Sudeste 20 Sudeste 0 -- -- 87
2019-04-22 02:00:00 5.4 10 Sudeste 19 Sudeste 0 -- -- 89
2019-04-22 01:00:00 5.5 9 Sudeste 26 Este 0 -- -- 87
2019-04-22 00:00:00 5.8 17 Este 27 Este 0 -- -- 86
2019-04-21 23:00:00 6.5 17 Este 26 Este 0 -- -- 80
2019-04-21 22:00:00 6.5 8 Este 15 Este 0 -- -- 80
2019-04-21 21:00:00 6.7 8 Este 26 Este 0 -- -- 78
2019-04-21 20:00:00 7.1 16 Este 26 Este 0 -- -- 74
2019-04-21 19:00:00 7.1 18 Este 25 Este 0 -- -- 76
2019-04-21 18:00:00 6.9 17 Este 27 Este 0 -- -- 76
2019-04-21 17:00:00 7.1 19 Este 28 Este 0 -- -- 76
2019-04-21 16:00:00 6.9 20 Este 30 Este 0 -- -- 76
2019-04-21 15:00:00 6.8 14 Este 30 Nordeste 0 -- -- 78
2019-04-21 14:00:00 6.9 17 Este 31 Este 0 -- -- 77
2019-04-21 13:00:00 7.2 18 Este 31 Sudeste 0 -- -- 76
2019-04-21 12:00:00 6.7 13 Este 23 Este 0 -- -- 81
2019-04-21 11:00:00 6.1 14 Este 26 Este 0 -- -- 84
2019-04-21 10:00:00 5.3 13 Este 24 Este 0 -- -- 87
2019-04-21 09:00:00 4.8 14 Este 21 Este 0 -- -- 90
2019-04-21 08:00:00 4.3 12 Este 22 Este 0 -- -- 92
2019-04-21 07:00:00 4.6 13 Este 20 Este 0 -- -- 86
2019-04-21 06:00:00 4.6 10 Este 27 Sudeste 0 -- -- 86
2019-04-21 05:00:00 4.2 17 Sudeste 28 Sudeste 0 -- -- 87
2019-04-21 04:00:00 4.5 14 Sudeste 27 Sudeste 0 -- -- 86
2019-04-21 03:00:00 5.8 18 Sudeste 28 Sudeste 0 -- -- 79
2019-04-21 02:00:00 5.9 22 Sudeste 33 Sudeste 0 -- -- 78
2019-04-21 01:00:00 7 22 Sudeste 31 Sudeste 0 -- -- 74
2019-04-21 00:00:00 7.1 19 Sudeste 32 Sudeste 0 -- -- 71
2019-04-20 23:00:00 7.6 14 Sudeste 24 Sudeste 0 -- -- 73
2019-04-20 22:00:00 8.2 17 Sudeste 23 Sudeste 0 -- -- 67
2019-04-20 21:00:00 10.1 15 Sudeste 34 Este 0 -- -- 57
2019-04-20 20:00:00 13.1 24 Este 39 Este 0 -- -- 48
2019-04-20 19:00:00 14.3 28 Este 42 Este 0 -- -- 45
2019-04-20 18:00:00 15.4 27 Este 45 Este 0 -- -- 41
2019-04-20 17:00:00 15.3 25 Este 48 Este 0 -- -- 41
2019-04-20 16:00:00 14.9 29 Este 47 Este 0 -- -- 44
2019-04-20 15:00:00 14.8 30 Este 55 Este 0 -- -- 46
2019-04-20 14:00:00 14.4 39 Este 66 Este 0 -- -- 46
2019-04-20 13:00:00 13.5 41 Este 64 Este 0 -- -- 44
2019-04-20 12:00:00 12.3 39 Este 55 Este 0 -- -- 51
2019-04-20 11:00:00 11.2 41 Este 56 Este 0 -- -- 59
2019-04-20 10:00:00 10.4 30 Este 41 Este 0 -- -- 63
2019-04-20 09:00:00 9.1 26 Este 37 Este 0 -- -- 66
2019-04-20 08:00:00 7 19 Sudeste 28 Sudeste 0 -- -- 75
2019-04-20 07:00:00 6.9 22 Este 30 Sudeste 0 -- -- 76
2019-04-20 06:00:00 7.4 22 Este 31 Este 0 -- -- 75
2019-04-20 05:00:00 6.4 17 Sudeste 29 Sudeste 0 -- -- 81
2019-04-20 04:00:00 5.6 14 Sudeste 20 Sudeste 0 -- -- 83
2019-04-20 03:00:00 6.2 12 Sudeste 36 Este 0 -- -- 79
2019-04-20 02:00:00 7.9 30 Este 48 Este 0 -- -- 71
2019-04-20 01:00:00 8.5 31 Este 51 Sudeste 0 -- -- 68
2019-04-20 00:00:00 8.6 28 Este 48 Este 0 -- -- 70
2019-04-19 23:00:00 9.1 34 Este 49 Este 0 -- -- 69
2019-04-19 22:00:00 9.3 35 Este 56 Este 0 -- -- 69
2019-04-19 21:00:00 9.8 37 Este 61 Este 0 -- -- 67
2019-04-19 20:00:00 10.5 44 Este 69 Este 0 -- -- 68
2019-04-19 19:00:00 10.5 40 Este 60 Este 0 -- -- 71
2019-04-19 18:00:00 10.6 36 Este 56 Este 0 -- -- 76
2019-04-19 17:00:00 9.7 36 Este 57 Este 0.2 -- -- 82
2019-04-19 16:00:00 8.4 27 Este 49 Este 0.2 -- -- 89
2019-04-19 15:00:00 6.9 6 Este 13 Sudeste 0.8 -- -- 95
2019-04-19 14:00:00 7.1 10 Sudeste 24 Sudeste 0.2 -- -- 93
2019-04-19 13:00:00 7.7 15 Sudeste 29 Sudeste 0 -- -- 85
2019-04-19 12:00:00 8.2 22 Sudeste 38 Sudeste 0 -- -- 83
2019-04-19 11:00:00 7.8 30 Sudeste 42 Sudeste 0 -- -- 84
2019-04-19 10:00:00 7.2 30 Sudeste 42 Sudeste 0 -- -- 87
2019-04-19 09:00:00 6.7 18 Sudeste 26 Sudeste 0 -- -- 91
2019-04-19 08:00:00 6.1 15 Sudeste 23 Sudeste 0 -- -- 93
2019-04-19 07:00:00 5.8 18 Sudeste 28 Sudeste 0 -- -- 94
2019-04-19 06:00:00 5.6 20 Sudeste 30 Sudeste 0 -- -- 92
2019-04-19 05:00:00 5.8 24 Sudeste 33 Este 0 -- -- 89
2019-04-19 04:00:00 5.9 18 Sudeste 27 Sudeste 0 -- -- 91
2019-04-19 03:00:00 5.7 21 Sudeste 31 Sudeste 0 -- -- 91
2019-04-19 02:00:00 5.8 15 Sudeste 27 Este 0 -- -- 93
2019-04-19 01:00:00 5.8 14 Sudeste 20 Sudeste 0.2 -- -- 93
2019-04-19 00:00:00 5.8 14 Sudeste 24 Sudeste 1.2 -- -- 94
2019-04-18 23:00:00 5.8 12 Sudeste 18 Sudeste 1 -- -- 95
2019-04-18 22:00:00 6 8 Sudeste 15 Sudeste 1.4 -- -- 95
2019-04-18 21:00:00 6.1 14 Sudeste 26 Este 1.2 -- -- 93
2019-04-18 20:00:00 6.5 19 Este 28 Este 0.2 -- -- 92
2019-04-18 19:00:00 7.3 14 Sudeste 20 Sudeste 0 -- -- 87
2019-04-18 18:00:00 6.9 10 Sudeste 26 Sudeste 0.4 -- -- 87
2019-04-18 17:00:00 7.2 19 Sudeste 27 Sudeste 0.6 -- -- 86
2019-04-18 16:00:00 7.2 18 Sudeste 24 Sudeste 0.6 -- -- 86
2019-04-18 15:00:00 7.3 13 Sudeste 19 Sudeste 0.6 -- -- 84
2019-04-18 14:00:00 6.6 8 Sudeste 12 Sudeste 1.2 -- -- 88
2019-04-18 13:00:00 5.2 8 Sudeste 13 Sur 2.8 -- -- 91
2019-04-18 12:00:00 5.2 10 Sur 18 Sudeste 2.6 -- -- 93
2019-04-18 11:00:00 5.3 9 Sudeste 16 Sudeste 3 -- -- 92
2019-04-18 10:00:00 5.6 8 Sudeste 15 Sudeste 2.2 -- -- 92
2019-04-18 09:00:00 6 3 Sudoeste 12 Sudoeste 1.2 -- -- 89
2019-04-18 08:00:00 6.4 9 Sur 18 Sur 0.8 -- -- 88
2019-04-18 07:00:00 6.8 10 Sur 23 Sur 0.6 -- -- 85
2019-04-18 06:00:00 7.4 2 Noroeste 23 Oeste 0.6 -- -- 93
2019-04-18 05:00:00 9.9 24 Sur 60 Sudeste 0 -- -- 82
2019-04-18 04:00:00 9.8 36 Sur 59 Sudeste 1.6 -- -- 83
2019-04-18 03:00:00 10 25 Sur 46 Sur 0.2 -- -- 81
2019-04-18 02:00:00 11.1 19 Sur 37 Sudoeste 0 -- -- 78
2019-04-18 01:00:00 10.2 5 Sudeste 12 Este 0 -- -- 82
2019-04-18 00:00:00 10 6 Sudeste 15 Oeste 0.4 -- -- 85
2019-04-17 23:00:00 11.8 16 Oeste 28 Sudoeste 0 -- -- 70
2019-04-17 22:00:00 14.3 6 Sudoeste 29 Sur 0 -- -- 57
2019-04-17 21:00:00 15.8 26 Sur 43 Sur 0 -- -- 52
2019-04-17 20:00:00 17.7 23 Sudeste 42 Sudeste 0 -- -- 41
2019-04-17 19:00:00 18 33 Sudeste 50 Sudeste 0 -- -- 39
2019-04-17 18:00:00 18.4 37 Sudeste 55 Sur 0 -- -- 38
2019-04-17 17:00:00 18.6 18 Sur 45 Sudoeste 0 -- -- 32
2019-04-17 16:00:00 18.4 19 Sudoeste 50 Sudoeste 0 -- -- 30
2019-04-17 15:00:00 16.1 14 Noroeste 39 Oeste 0 -- -- 48
2019-04-17 14:00:00 14.8 14 Sudoeste 55 Sudoeste 0 -- -- 49
2019-04-17 13:00:00 13.6 24 Sur 45 Sur 0 -- -- 52
2019-04-17 12:00:00 12.7 18 Sudeste 41 Sur 0 -- -- 62
2019-04-17 11:00:00 11.6 33 Sur 52 Sur 0 -- -- 60
2019-04-17 10:00:00 9.8 19 Sudeste 36 Sudeste 0 -- -- 73
2019-04-17 09:00:00 8.9 19 Sudeste 34 Sudoeste 0 -- -- 76
2019-04-17 08:00:00 9.2 17 Sur 45 Sur 0 -- -- 74
2019-04-17 07:00:00 9.3 27 Sur 41 Sur 0 -- -- 72
2019-04-17 06:00:00 9.6 10 Sudoeste 48 Sur 0 -- -- 71
2019-04-17 05:00:00 9.9 19 Sur 44 Sur 0 -- -- 71
2019-04-17 04:00:00 9.3 28 Sur 54 Sudeste 0 -- -- 76
2019-04-17 03:00:00 10.3 29 Sur 51 Sur 0 -- -- 68
2019-04-17 02:00:00 10.8 24 Sudeste 34 Sudeste 0 -- -- 53
2019-04-17 01:00:00 10.1 23 Sudeste 36 Sudeste 0 -- -- 55
2019-04-17 00:00:00 10.1 21 Sudeste 23 Sudeste 0 -- -- 55
2019-04-16 23:00:00 10.3 11 Sudeste 20 Sudeste 0 -- -- 54
2019-04-16 22:00:00 10.9 13 Sudeste 24 Sur 0 -- -- 53
2019-04-16 21:00:00 13.2 15 Sur 31 Sudeste 0 -- -- 45
2019-04-16 20:00:00 15.7 17 Sur 33 Sur 0 -- -- 41
2019-04-16 19:00:00 16 22 Sur 38 Sur 0 -- -- 39
2019-04-16 18:00:00 16.7 20 Sur 40 Sudeste 0 -- -- 36
2019-04-16 17:00:00 17.3 14 Sur 37 Sur 0 -- -- 39
2019-04-16 16:00:00 16.7 18 Sur 39 Sudeste 0 -- -- 36
2019-04-16 15:00:00 16.2 19 Sudeste 38 Sudeste 0 -- -- 46
2019-04-16 14:00:00 16.2 11 Sudeste 34 Este 0 -- -- 45
2019-04-16 13:00:00 13.6 14 Este 26 Este 0 -- -- 51
2019-04-16 12:00:00 12.9 8 Este 13 Este 0 -- -- 53
2019-04-16 11:00:00 12.8 2 Nordeste 7 Este 0 -- -- 60
2019-04-16 10:00:00 9.7 3 Norte 7 Noroeste 0 -- -- 74
2019-04-16 09:00:00 6.7 0 Calma 6 Sudoeste 0 -- -- 95
2019-04-16 08:00:00 4.7 2 Sur 16 Noroeste 0 -- -- 96
2019-04-16 07:00:00 3.8 8 Oeste 24 Oeste 0 -- -- 95
2019-04-16 06:00:00 4.6 13 Oeste 19 Oeste 0 -- -- 92
2019-04-16 05:00:00 5.5 16 Oeste 23 Oeste 0 -- -- 92
2019-04-16 04:00:00 5.1 11 Oeste 19 Oeste 0 -- -- 92
2019-04-16 03:00:00 5.6 10 Oeste 22 Oeste 0 -- -- 90
2019-04-16 02:00:00 7 13 Oeste 20 Oeste 0 -- -- 81
2019-04-16 01:00:00 6.6 16 Oeste 23 Oeste 0 -- -- 79
2019-04-16 00:00:00 7.7 18 Oeste 30 Oeste 0 -- -- 71
2019-04-15 23:00:00 8.2 21 Oeste 37 Oeste 0 -- -- 76
2019-04-15 22:00:00 8.7 30 Oeste 41 Oeste 0 -- -- 75
2019-04-15 21:00:00 9.8 27 Oeste 44 Oeste 0 -- -- 73
2019-04-15 20:00:00 11 24 Noroeste 46 Noroeste 0.2 -- -- 75
2019-04-15 19:00:00 13.3 24 Noroeste 62 Oeste 1.6 -- -- 73
2019-04-15 18:00:00 19 30 Sudoeste 48 Sur 0 -- -- 38
2019-04-15 17:00:00 17.6 20 Sur 41 Sur 0 -- -- 52
2019-04-15 16:00:00 17.9 28 Sudoeste 51 Sudoeste 0 -- -- 53
2019-04-15 15:00:00 18 32 Sudoeste 48 Sudoeste 0 -- -- 54
2019-04-15 14:00:00 17.7 21 Sur 40 Sur 0 -- -- 58
2019-04-15 13:00:00 16.6 19 Sudoeste 43 Sudoeste 0 -- -- 57
2019-04-15 12:00:00 17.1 22 Sudoeste 42 Sudoeste 0 -- -- 54
2019-04-15 11:00:00 16.4 22 Sudoeste 37 Sur 0 -- -- 58
2019-04-15 10:00:00 15.1 12 Oeste 26 Sudoeste 0 -- -- 66
2019-04-15 09:00:00 13.6 7 Sur 16 Sudoeste 0 -- -- 69
2019-04-15 08:00:00 12.5 8 Sudoeste 25 Sudoeste 0 -- -- 72
2019-04-15 07:00:00 12.6 9 Sur 27 Sur 0 -- -- 71
2019-04-15 06:00:00 11 8 Sudoeste 19 Sur 0 -- -- 74
2019-04-15 05:00:00 11.8 14 Sur 29 Sur 0 -- -- 71
2019-04-15 04:00:00 8.4 6 Sudeste 17 Sur 0 -- -- 83
2019-04-15 03:00:00 8.7 11 Sur 16 Sudeste 0 -- -- 84
2019-04-15 02:00:00 8.4 7 Sudeste 14 Sudeste 0 -- -- 83
2019-04-15 01:00:00 8 11 Sudeste 17 Sudeste 0 -- -- 85
2019-04-15 00:00:00 9.4 8 Sudeste 13 Sudeste 0 -- -- 79
2019-04-14 23:00:00 10.4 5 Sudeste 10 Sur 0 -- -- 76
2019-04-14 22:00:00 11.8 0 Calma 4 Norte 0 -- -- 70
2019-04-14 21:00:00 12.7 4 Noroeste 13 Norte 0 -- -- 68
2019-04-14 20:00:00 16.3 9 Norte 21 Norte 0 -- -- 55
2019-04-14 19:00:00 17.5 11 Norte 25 Norte 0 -- -- 52
2019-04-14 18:00:00 17.7 17 Noroeste 30 Noroeste 0 -- -- 51
2019-04-14 17:00:00 17.2 16 Noroeste 31 Noroeste 0 -- -- 56
2019-04-14 16:00:00 16.5 19 Noroeste 31 Noroeste 0 -- -- 58
2019-04-14 15:00:00 16.3 15 Noroeste 31 Noroeste 0 -- -- 62
2019-04-14 14:00:00 14.9 21 Noroeste 30 Oeste 0 -- -- 66
2019-04-14 13:00:00 12.3 19 Oeste 30 Noroeste 0 -- -- 77
2019-04-14 12:00:00 11.5 20 Noroeste 27 Noroeste 0 -- -- 82
2019-04-14 11:00:00 10.6 17 Noroeste 31 Oeste 0 -- -- 87
2019-04-14 10:00:00 10.2 21 Oeste 33 Oeste 0 -- -- 87
2019-04-14 09:00:00 9.5 24 Oeste 34 Oeste 0 -- -- 89
2019-04-14 08:00:00 8.3 23 Oeste 36 Oeste 0 -- -- 93
2019-04-14 07:00:00 9.2 26 Oeste 39 Oeste 0 -- -- 83
2019-04-14 06:00:00 9.7 21 Oeste 31 Oeste 0 -- -- 75
2019-04-14 05:00:00 9.6 16 Oeste 30 Noroeste 0 -- -- 69
2019-04-14 04:00:00 9.9 18 Oeste 32 Oeste 0 -- -- 58
2019-04-14 03:00:00 9.1 17 Oeste 23 Oeste 0 -- -- 44
2019-04-14 02:00:00 9.2 11 Oeste 15 Oeste 0 -- -- 44
2019-04-14 01:00:00 8.5 10 Sudoeste 14 Sudoeste 0 -- -- 46
2019-04-14 00:00:00 8.2 14 Sudoeste 15 Sudoeste 0 -- -- 47
2019-04-13 23:00:00 8.6 2 Norte 13 Oeste 0 -- -- 45
2019-04-13 22:00:00 10.1 12 Oeste 16 Oeste 0 -- -- 44
2019-04-13 21:00:00 9.9 10 Noroeste 20 Noroeste 0 -- -- 42
2019-04-13 20:00:00 15.2 13 Norte 28 Noroeste 0 -- -- 27
2019-04-13 19:00:00 16.5 20 Noroeste 33 Noroeste 0 -- -- 25
2019-04-13 18:00:00 17.3 14 Noroeste 27 Noroeste 0 -- -- 23
2019-04-13 17:00:00 16.6 15 Noroeste 24 Noroeste 0 -- -- 25
2019-04-13 16:00:00 15.6 12 Norte 22 Noroeste 0 -- -- 18
2019-04-13 15:00:00 15.1 7 Norte 22 Norte 0 -- -- 19
2019-04-13 14:00:00 14.3 11 Norte 24 Oeste 0 -- -- 27
2019-04-13 13:00:00 13.4 12 Noroeste 26 Noroeste 0 -- -- 26
2019-04-13 12:00:00 12.5 15 Noroeste 27 Noroeste 0 -- -- 25
2019-04-13 11:00:00 11.2 20 Noroeste 29 Noroeste 0 -- -- 27
2019-04-13 10:00:00 9.8 17 Oeste 25 Oeste 0 -- -- 39
2019-04-13 09:00:00 7.6 13 Oeste 17 Oeste 0 -- -- 45
2019-04-13 08:00:00 3.1 13 Oeste 17 Oeste 0 -- -- 59
2019-04-13 07:00:00 2.8 14 Oeste 20 Oeste 0 -- -- 64
2019-04-13 06:00:00 3.3 15 Oeste 19 Oeste 0 -- -- 64
2019-04-13 05:00:00 2.7 13 Oeste 17 Oeste 0 -- -- 64
2019-04-13 04:00:00 2.3 9 Oeste 15 Oeste 0 -- -- 64
2019-04-13 03:00:00 3.5 12 Oeste 18 Oeste 0 -- -- 50
2019-04-13 02:00:00 3.3 14 Oeste 19 Oeste 0 -- -- 58
2019-04-13 01:00:00 3.5 15 Oeste 21 Oeste 0 -- -- 63
2019-04-13 00:00:00 4.2 15 Oeste 18 Oeste 0 -- -- 60
2019-04-12 23:00:00 5.3 9 Noroeste 22 Noroeste 0 -- -- 57
2019-04-12 22:00:00 7.3 17 Noroeste 22 Noroeste 0 -- -- 47
2019-04-12 21:00:00 8.6 15 Noroeste 27 Noroeste 0 -- -- 46
2019-04-12 20:00:00 11.7 20 Noroeste 30 Noroeste 0 -- -- 38
2019-04-12 19:00:00 13 19 Noroeste 32 Noroeste 0 -- -- 34
2019-04-12 18:00:00 13.1 19 Noroeste 32 Noroeste 0 -- -- 37
2019-04-12 17:00:00 12.5 19 Noroeste 32 Noroeste 0 -- -- 37
2019-04-12 16:00:00 11.8 17 Noroeste 34 Noroeste 0 -- -- 44
2019-04-12 15:00:00 11 22 Noroeste 39 Noroeste 0 -- -- 48
2019-04-12 14:00:00 10.1 23 Noroeste 36 Noroeste 0 -- -- 53
2019-04-12 13:00:00 9 17 Noroeste 27 Noroeste 0 -- -- 58
2019-04-12 12:00:00 7.3 19 Noroeste 30 Oeste 0 -- -- 62
2019-04-12 11:00:00 6.5 17 Noroeste 23 Noroeste 0 -- -- 68
2019-04-12 10:00:00 5.5 10 Noroeste 14 Noroeste 0 -- -- 76
2019-04-12 09:00:00 4.7 0 Calma 8 Noroeste 0 -- -- 78
2019-04-12 08:00:00 -0.7 2 Noroeste 5 Oeste 0 -- -- 97
2019-04-12 07:00:00 -0.7 0 Calma 9 Oeste 0 -- -- 96
2019-04-12 06:00:00 -1 5 Oeste 10 Oeste 0 -- -- 92
2019-04-12 05:00:00 -0.3 3 Oeste 9 Oeste 0 -- -- 93
2019-04-12 04:00:00 -0.1 3 Noroeste 10 Noroeste 0 -- -- 91
2019-04-12 03:00:00 0.1 0 Calma 9 Oeste 0 -- -- 90
2019-04-12 02:00:00 0.9 5 Sudoeste 8 Sudoeste 0 -- -- 90
2019-04-12 01:00:00 1.8 6 Noroeste 9 Norte 0 -- -- 85
2019-04-12 00:00:00 1.8 5 Noroeste 18 Norte 0 -- -- 84
2019-04-11 23:00:00 3 10 Norte 19 Norte 0 -- -- 82
2019-04-11 22:00:00 4.5 12 Norte 22 Norte 0 -- -- 73
2019-04-11 21:00:00 6.8 17 Norte 24 Norte 0 -- -- 65
2019-04-11 20:00:00 7.6 13 Norte 26 Norte 0 -- -- 62
2019-04-11 19:00:00 8.1 19 Norte 29 Norte 0 -- -- 59
2019-04-11 18:00:00 8.4 23 Norte 34 Norte 0 -- -- 58
2019-04-11 17:00:00 7.7 21 Norte -- -- -- -- -- 61
2019-04-11 16:00:00 -- -- -- -- -- -- -- -- --
2019-04-11 15:00:00 -- -- -- -- -- -- -- -- --
2019-04-11 14:00:00 7.6 22 Norte 40 Norte 0 -- -- 60
2019-04-11 13:00:00 7.7 21 Norte 38 Noroeste 0 -- -- 60
2019-04-11 12:00:00 6.8 18 Norte 31 Norte 0 -- -- 64
2019-04-11 11:00:00 6.1 15 Noroeste 25 Norte 0 -- -- 74
2019-04-11 10:00:00 5.2 12 Norte 22 Noroeste 0 -- -- 76
2019-04-11 09:00:00 2.5 15 Noroeste 20 Noroeste 0 -- -- 89
2019-04-11 08:00:00 0.4 12 Oeste 19 Oeste 0 -- -- 96
2019-04-11 07:00:00 0.5 12 Oeste 21 Noroeste 0 -- -- 96
2019-04-11 06:00:00 0.3 12 Oeste 17 Oeste 0 -- -- 96
2019-04-11 05:00:00 0.1 12 Oeste 19 Oeste 0 -- -- 95
2019-04-11 04:00:00 0.3 11 Oeste 14 Oeste 0 -- -- 95
2019-04-11 03:00:00 0.5 12 Oeste 15 Oeste 0 -- -- 94
2019-04-11 02:00:00 0.9 11 Oeste 14 Oeste 0 -- -- 91
2019-04-11 01:00:00 1.6 9 Noroeste 13 Noroeste 0 -- -- 88
2019-04-11 00:00:00 1.5 4 Noroeste 7 Noroeste 0 -- -- 87
2019-04-10 23:00:00 2.9 5 Norte 15 Nordeste 0 -- -- 82
2019-04-10 22:00:00 4.6 8 Nordeste 25 Norte 0 -- -- 77
2019-04-10 21:00:00 6.1 12 Norte 22 Nordeste 0 -- -- 70
2019-04-10 20:00:00 7.3 11 Noroeste 27 Norte 0 -- -- 64
2019-04-10 19:00:00 7.9 13 Norte 28 Norte 0 -- -- 62
2019-04-10 18:00:00 8 21 Norte 27 Norte 0 -- -- 61
2019-04-10 17:00:00 7.8 19 Noroeste 32 Noroeste 0 -- -- 64
2019-04-10 16:00:00 8.3 23 Noroeste 35 Norte 0 -- -- 68
2019-04-10 15:00:00 6.7 23 Noroeste 32 Noroeste 0 -- -- 75
2019-04-10 14:00:00 3 14 Norte 36 Norte 0.4 -- -- 90
2019-04-10 13:00:00 5.2 18 Norte 30 Noroeste 0.2 -- -- 85
2019-04-10 12:00:00 2.1 22 Noroeste 32 Noroeste 0.2 -- -- 94
2019-04-10 11:00:00 2.7 21 Noroeste 34 Noroeste 0.2 -- -- 95
2019-04-10 10:00:00 2.3 20 Noroeste 28 Noroeste 0.6 -- -- 95
2019-04-10 09:00:00 2.4 21 Noroeste 37 Noroeste 0 -- -- 95
2019-04-10 08:00:00 2 20 Noroeste 33 Noroeste 0.6 -- -- 95
2019-04-10 07:00:00 2.5 23 Noroeste 35 Noroeste 0 -- -- 93
2019-04-10 06:00:00 2.8 23 Noroeste 38 Noroeste 0 -- -- 93
2019-04-10 05:00:00 3.1 24 Noroeste 41 Noroeste 0 -- -- 90
2019-04-10 04:00:00 3.4 22 Noroeste 30 Noroeste 0 -- -- 91
2019-04-10 03:00:00 3.5 22 Noroeste 33 Oeste 0 -- -- 91
2019-04-10 02:00:00 3.6 21 Noroeste 37 Noroeste 0.2 -- -- 92
2019-04-10 01:00:00 4 26 Noroeste 33 Noroeste 0 -- -- 86
2019-04-10 00:00:00 4.1 19 Noroeste 33 Oeste 0 -- -- 83
2019-04-09 23:00:00 4.3 21 Oeste 28 Oeste 0 -- -- 83
2019-04-09 22:00:00 3.9 13 Noroeste 31 Oeste 0 -- -- 85
2019-04-09 21:00:00 5.1 26 Noroeste 38 Noroeste 0 -- -- 78
2019-04-09 20:00:00 6.2 21 Noroeste 45 Noroeste 0 -- -- 72
2019-04-09 19:00:00 7.1 30 Noroeste 50 Noroeste 0 -- -- 63
2019-04-09 18:00:00 6.4 37 Noroeste 54 Oeste 0 -- -- 68
2019-04-09 17:00:00 5.1 33 Oeste 50 Oeste 0.2 -- -- 86
2019-04-09 16:00:00 4.5 32 Oeste 51 Oeste 0 -- -- 90
2019-04-09 15:00:00 4.9 37 Oeste 51 Oeste 0.4 -- -- 87
2019-04-09 14:00:00 3.9 18 Noroeste 39 Noroeste 0 -- -- 89
2019-04-09 13:00:00 7.2 23 Oeste 39 Oeste 0 -- -- 71
2019-04-09 12:00:00 7.3 27 Oeste 45 Oeste 0 -- -- 64
2019-04-09 11:00:00 5.9 24 Oeste 38 Oeste 0 -- -- 74
2019-04-09 10:00:00 4.6 29 Oeste 39 Oeste 0 -- -- 75
2019-04-09 09:00:00 5 20 Oeste 35 Oeste 0 -- -- 70
2019-04-09 08:00:00 3.3 14 Oeste 28 Oeste 0 -- -- 87
2019-04-09 07:00:00 3.1 18 Oeste 27 Oeste 0 -- -- 89
2019-04-09 06:00:00 3.3 19 Oeste 26 Oeste 0 -- -- 88
2019-04-09 05:00:00 3.2 20 Noroeste 32 Noroeste 0 -- -- 89
2019-04-09 04:00:00 3.5 18 Noroeste 28 Oeste 0 -- -- 88
2019-04-09 03:00:00 3.6 17 Oeste 32 Oeste 0 -- -- 87
2019-04-09 02:00:00 4.3 18 Oeste 31 Oeste 0 -- -- 81
2019-04-09 01:00:00 4.5 18 Oeste 33 Oeste 0 -- -- 80
2019-04-09 00:00:00 4.6 17 Oeste 31 Oeste 0 -- -- 78
2019-04-08 23:00:00 5.7 25 Oeste 36 Oeste 0 -- -- 74
2019-04-08 22:00:00 6 10 Noroeste 17 Noroeste 0 -- -- 76
2019-04-08 21:00:00 5.9 9 Noroeste 26 Noroeste 0 -- -- 78
2019-04-08 20:00:00 8.6 17 Noroeste 28 Noroeste 0 -- -- 62
2019-04-08 19:00:00 10.1 20 Noroeste 38 Noroeste 0 -- -- 60
2019-04-08 18:00:00 10.5 23 Noroeste 31 Oeste 0 -- -- 54
2019-04-08 17:00:00 10.4 17 Oeste 38 Oeste 0 -- -- 58
2019-04-08 16:00:00 10.1 31 Oeste 42 Oeste 0 -- -- 57
2019-04-08 15:00:00 6.6 24 Oeste 41 Oeste 0.2 -- -- 85
2019-04-08 14:00:00 7.8 24 Oeste 39 Oeste 0.2 -- -- 82
2019-04-08 13:00:00 6.7 22 Oeste 31 Oeste 0.4 -- -- 90
2019-04-08 12:00:00 6.7 20 Oeste 36 Noroeste 0.4 -- -- 91
2019-04-08 11:00:00 5.7 23 Noroeste 34 Oeste 0.4 -- -- 93
2019-04-08 10:00:00 5.9 20 Oeste 32 Oeste 0.4 -- -- 94
2019-04-08 09:00:00 5.9 20 Oeste 33 Oeste 0.6 -- -- 92
2019-04-08 08:00:00 5.7 17 Oeste 32 Sudoeste 0.4 -- -- 88
2019-04-08 07:00:00 5.6 15 Oeste 25 Sudoeste 0.2 -- -- 88
2019-04-08 06:00:00 5.3 0 Calma 16 Oeste 0 -- -- 93
2019-04-08 05:00:00 6 13 Oeste 25 Oeste 0 -- -- 88
2019-04-08 04:00:00 6 12 Oeste 23 Oeste 0.2 -- -- 90
2019-04-08 03:00:00 6.4 14 Oeste 27 Oeste 0 -- -- 89
2019-04-08 02:00:00 6 15 Oeste 30 Oeste 0.2 -- -- 91
2019-04-08 01:00:00 4 7 Sur 12 Sur 0.6 -- -- 91
2019-04-08 00:00:00 3.2 7 Sur 15 Sudoeste 1 -- -- 90
2019-04-07 23:00:00 3.1 9 Sur 17 Sur 0.4 -- -- 88
2019-04-07 22:00:00 3.7 5 Sudoeste 19 Oeste 0.2 -- -- 83
2019-04-07 21:00:00 4.1 16 Oeste 32 Oeste 0 -- -- 80
2019-04-07 20:00:00 5.4 22 Oeste 34 Oeste 0 -- -- 72
2019-04-07 19:00:00 7.7 17 Oeste 39 Oeste 0 -- -- 49
2019-04-07 18:00:00 7.9 20 Oeste 38 Noroeste 0 -- -- 50
2019-04-07 17:00:00 8.4 19 Oeste 34 Oeste 0 -- -- 50
2019-04-07 16:00:00 8.2 18 Oeste 40 Oeste 0 -- -- 51
2019-04-07 15:00:00 7.5 16 Noroeste 32 Oeste 0 -- -- 60
2019-04-07 14:00:00 5.9 21 Noroeste 32 Noroeste 0 -- -- 66
2019-04-07 13:00:00 3.9 22 Noroeste 37 Noroeste 0 -- -- 75
2019-04-07 12:00:00 2 21 Noroeste 36 Noroeste 0 -- -- 82
2019-04-07 11:00:00 2.1 27 Noroeste 41 Noroeste 0 -- -- 81
2019-04-07 10:00:00 2 30 Noroeste 42 Noroeste 0 -- -- 81
2019-04-07 09:00:00 0.5 27 Noroeste 36 Noroeste 0 -- -- 94
2019-04-07 08:00:00 0.4 24 Noroeste 36 Noroeste 0 -- -- 96
2019-04-07 07:00:00 0.2 26 Noroeste 36 Oeste 0 -- -- 95
2019-04-07 06:00:00 0.6 18 Noroeste 36 Noroeste 0 -- -- 94
2019-04-07 05:00:00 0.9 24 Noroeste 36 Noroeste 0 -- -- 93
2019-04-07 04:00:00 1 24 Noroeste 37 Noroeste 0 -- -- 93
2019-04-07 03:00:00 1.2 27 Noroeste 46 Oeste 0 -- -- 93
2019-04-07 02:00:00 1.3 28 Oeste 47 Oeste 0 -- -- 91
2019-04-07 01:00:00 1.6 35 Oeste 52 Noroeste 0 -- -- 90
2019-04-07 00:00:00 1.6 31 Oeste 45 Oeste 0 -- -- 88
2019-04-06 23:00:00 2 26 Oeste 45 Noroeste 0 -- -- 90
2019-04-06 22:00:00 1.6 20 Oeste 45 Oeste 0.4 -- -- 92
2019-04-06 21:00:00 2.9 27 Noroeste 46 Noroeste 0 -- -- 84
2019-04-06 20:00:00 2.8 28 Noroeste 44 Noroeste 0.2 -- -- 88
2019-04-06 19:00:00 1.5 31 Oeste 53 Noroeste 0.6 -- -- 93
2019-04-06 18:00:00 4.2 24 Noroeste 61 Oeste 0 -- -- 82
2019-04-06 17:00:00 3.7 38 Oeste 59 Oeste 0 -- -- 84
2019-04-06 16:00:00 2.2 30 Oeste 60 Oeste 0.2 -- -- 95
2019-04-06 15:00:00 4.3 32 Oeste 57 Oeste 0.2 -- -- 77
2019-04-06 14:00:00 3.8 34 Oeste 55 Oeste 0.2 -- -- 81
2019-04-06 13:00:00 2.7 31 Oeste 50 Oeste 0 -- -- 77
2019-04-06 12:00:00 2.1 23 Oeste 43 Oeste 0 -- -- 90
2019-04-06 11:00:00 2.8 22 Oeste 47 Oeste 0 -- -- 76
2019-04-06 10:00:00 1.6 22 Oeste 38 Oeste 0.4 -- -- 88
2019-04-06 09:00:00 0.7 16 Oeste 28 Oeste 0 -- -- 86
2019-04-06 08:00:00 0.2 18 Oeste 35 Oeste 0 -- -- 92
2019-04-06 07:00:00 0.2 22 Oeste 35 Oeste 0 -- -- 95
2019-04-06 06:00:00 0.1 24 Oeste 38 Oeste 0 -- -- 96
2019-04-06 05:00:00 0.1 21 Oeste 35 Oeste 0 -- -- 96
2019-04-06 04:00:00 0 18 Oeste 39 Oeste 0.2 -- -- 96
2019-04-06 03:00:00 0.2 21 Oeste 31 Oeste 0.2 -- -- 94
2019-04-06 02:00:00 0.7 20 Oeste 33 Oeste 0 -- -- 92
2019-04-06 01:00:00 0.5 23 Oeste 36 Oeste 0 -- -- 92
2019-04-06 00:00:00 0.6 20 Oeste 37 Oeste 0 -- -- 90
2019-04-05 23:00:00 -0.2 12 Oeste 18 Oeste 0 -- -- 96
2019-04-05 22:00:00 -0.6 13 Oeste 18 Oeste 0 -- -- 96
2019-04-05 21:00:00 -0.3 10 Oeste 30 Noroeste 0 -- -- 95
2019-04-05 20:00:00 -0.1 27 Noroeste 36 Noroeste 0 -- -- 94
2019-04-05 19:00:00 2.2 14 Noroeste 22 Noroeste 0 -- -- 93
2019-04-05 18:00:00 1.9 11 Noroeste 17 Noroeste 0 -- -- 94
2019-04-05 17:00:00 1.7 3 Oeste 9 Noroeste 0.6 -- -- 93
2019-04-05 16:00:00 0 2 Sudoeste 41 Oeste 1 -- -- 95
2019-04-05 15:00:00 -0.1 31 Oeste 55 Oeste 0 -- -- 92
2019-04-05 14:00:00 6.7 22 Sudoeste 39 Sudoeste 0 -- -- 64
2019-04-05 13:00:00 5 16 Sudoeste 42 Sur 0 -- -- 73
2019-04-05 12:00:00 5.1 19 Sur 36 Sur 0 -- -- 75
2019-04-05 11:00:00 3.8 17 Sur 30 Sur 0 -- -- 78
2019-04-05 10:00:00 3.3 19 Sur 44 Sudoeste 0 -- -- 81
2019-04-05 09:00:00 2.6 22 Sudoeste 41 Sudoeste 0 -- -- 82
2019-04-05 08:00:00 1.8 8 Sur 23 Sudoeste 0.2 -- -- 87
2019-04-05 07:00:00 2.3 11 Sur 28 Sudoeste 0.2 -- -- 85
2019-04-05 06:00:00 2.7 10 Sur 28 Sudoeste 0 -- -- 80
2019-04-05 05:00:00 3.1 17 Sudoeste 37 Sudoeste 0 -- -- 75
2019-04-05 04:00:00 2.5 6 Oeste 14 Oeste 0 -- -- 75
2019-04-05 03:00:00 2.5 0 Calma 6 Sudoeste 0 -- -- 69
2019-04-05 02:00:00 2.8 3 Norte 8 Norte 0 -- -- 65
2019-04-05 01:00:00 3.6 2 Norte 8 Norte 0 -- -- 57
2019-04-05 00:00:00 4.1 4 Noroeste 18 Noroeste 0 -- -- 52
2019-04-04 23:00:00 5.2 11 Noroeste 16 Oeste 0 -- -- 44
2019-04-04 22:00:00 5.3 0 Calma 10 Noroeste 0 -- -- 42
2019-04-04 21:00:00 6.3 5 Noroeste 14 Oeste 0 -- -- 36
2019-04-04 20:00:00 7.7 12 Noroeste 23 Noroeste 0 -- -- 34
2019-04-04 19:00:00 8.4 15 Noroeste 28 Oeste 0 -- -- 29
2019-04-04 18:00:00 8.9 16 Oeste 35 Oeste 0 -- -- 33
2019-04-04 17:00:00 9.1 19 Oeste 37 Noroeste 0 -- -- 34
2019-04-04 16:00:00 8.6 20 Noroeste 35 Noroeste 0 -- -- 37
2019-04-04 15:00:00 7.6 21 Noroeste 35 Noroeste 0 -- -- 37
2019-04-04 14:00:00 6.6 17 Noroeste 37 Noroeste 0 -- -- 40
2019-04-04 13:00:00 5.4 19 Noroeste 41 Noroeste 0 -- -- 46
2019-04-04 12:00:00 3.8 23 Noroeste 36 Oeste 0 -- -- 51
2019-04-04 11:00:00 2.7 18 Oeste 32 Oeste 0 -- -- 59
2019-04-04 10:00:00 1 15 Oeste 22 Oeste 0 -- -- 65
2019-04-04 09:00:00 -0.9 14 Noroeste 24 Oeste 0 -- -- 73
2019-04-04 08:00:00 -3.6 16 Oeste 24 Oeste 0 -- -- 83
2019-04-04 07:00:00 -3.4 14 Oeste 22 Oeste 0 -- -- 79
2019-04-04 06:00:00 -3.2 14 Oeste 22 Oeste 0 -- -- 78
2019-04-04 05:00:00 -3.2 14 Oeste 19 Oeste 0 -- -- 77
2019-04-04 04:00:00 -2.6 14 Oeste 19 Oeste 0 -- -- 75
2019-04-04 03:00:00 -2.1 12 Oeste 19 Oeste 0 -- -- 77
2019-04-04 02:00:00 -2 13 Oeste 17 Oeste 0 -- -- 80
2019-04-04 01:00:00 -2.8 5 Norte 12 Noroeste 0 -- -- 81
2019-04-04 00:00:00 -2 9 Norte 12 Norte 0 -- -- 79
2019-04-03 23:00:00 -0.6 10 Norte 19 Norte 0 -- -- 77
2019-04-03 22:00:00 2.5 17 Norte 24 Noroeste 0 -- -- 60
2019-04-03 21:00:00 3 12 Norte 38 Noroeste 0 -- -- 66
2019-04-03 20:00:00 3.7 13 Norte 40 Norte 0 -- -- 67
2019-04-03 19:00:00 5.3 33 Norte 44 Noroeste 0 -- -- 53
2019-04-03 18:00:00 6.8 33 Noroeste 50 Noroeste 0 -- -- 45
2019-04-03 17:00:00 8.9 28 Noroeste 46 Noroeste 0 -- -- 41
2019-04-03 16:00:00 7.6 29 Noroeste 43 Noroeste 0 -- -- 43
2019-04-03 15:00:00 6.6 27 Noroeste 41 Oeste 0 -- -- 50
2019-04-03 14:00:00 5.2 25 Noroeste 36 Noroeste 0 -- -- 65
2019-04-03 13:00:00 3.5 22 Noroeste 33 Oeste 0 -- -- 79
2019-04-03 12:00:00 4.1 21 Oeste 30 Noroeste 0 -- -- 75
2019-04-03 11:00:00 4.2 22 Oeste 31 Oeste 0 -- -- 75
2019-04-03 10:00:00 4.2 22 Oeste 29 Oeste 0 -- -- 80
2019-04-03 09:00:00 3.8 18 Oeste 26 Noroeste 0 -- -- 76
2019-04-03 08:00:00 2.6 15 Noroeste 22 Noroeste 0 -- -- 77
2019-04-03 07:00:00 3.4 18 Noroeste 28 Oeste 0 -- -- 72
2019-04-03 06:00:00 3.8 17 Noroeste 29 Oeste 0 -- -- 70
2019-04-03 05:00:00 5 23 Oeste 39 Oeste 0 -- -- 67
2019-04-03 04:00:00 6.1 19 Oeste 28 Oeste 0 -- -- 66
2019-04-03 03:00:00 6 16 Oeste 25 Oeste 0 -- -- 63
2019-04-03 02:00:00 7 20 Oeste 38 Oeste 0 -- -- 58
2019-04-03 01:00:00 8 22 Oeste 35 Oeste 0 -- -- 50
2019-04-03 00:00:00 8.1 14 Oeste 22 Sudoeste 0 -- -- 53
2019-04-02 23:00:00 7.8 8 Oeste 17 Oeste 0 -- -- 59
2019-04-02 22:00:00 8.2 12 Oeste 18 Noroeste 0 -- -- 68
2019-04-02 21:00:00 10.2 10 Oeste 17 Oeste 0 -- -- 64
2019-04-02 20:00:00 12.1 2 Norte 15 Noroeste 0.4 -- -- 64
2019-04-02 19:00:00 9.6 5 Noroeste 54 Noroeste 0.4 -- -- 71
2019-04-02 18:00:00 11 22 Norte 40 Oeste 0 -- -- 57
2019-04-02 17:00:00 14.7 20 Oeste 34 Noroeste 0 -- -- 43
2019-04-02 16:00:00 13 5 Sudeste 25 Sudeste 0 -- -- 51
2019-04-02 15:00:00 12.8 16 Noroeste 42 Norte 0 -- -- 51
2019-04-02 14:00:00 14.4 27 Noroeste 42 Noroeste 0 -- -- 47
2019-04-02 13:00:00 13.7 21 Noroeste 45 Noroeste 0 -- -- 49
2019-04-02 12:00:00 12.3 18 Noroeste 29 Oeste 0 -- -- 56
2019-04-02 11:00:00 11.3 11 Noroeste 18 Noroeste 0 -- -- 59
2019-04-02 10:00:00 8.3 4 Oeste 16 Oeste 0 -- -- 70
2019-04-02 09:00:00 5.3 8 Oeste 17 Oeste 0 -- -- 80
2019-04-02 08:00:00 4.2 12 Oeste 18 Oeste 0 -- -- 85
2019-04-02 07:00:00 4.2 10 Oeste 14 Oeste 0 -- -- 84
2019-04-02 06:00:00 4.7 13 Oeste 18 Noroeste 0 -- -- 83
2019-04-02 05:00:00 5.2 10 Noroeste 15 Noroeste 0 -- -- 80
2019-04-02 04:00:00 5.8 7 Oeste 12 Sudoeste 0 -- -- 77
2019-04-02 03:00:00 5.6 10 Sudoeste 12 Sudoeste 0 -- -- 81
2019-04-02 02:00:00 6.1 0 Calma 8 Sudoeste 0 -- -- 75
2019-04-02 01:00:00 7 8 Sudoeste 11 Sudoeste 0 -- -- 74
2019-04-02 00:00:00 7.2 6 Sudoeste 11 Sudoeste 0 -- -- 73
2019-04-01 23:00:00 6.8 3 Sudeste 7 Sudeste 0 -- -- 75
2019-04-01 22:00:00 8.5 5 Sudeste 9 Sudeste 0 -- -- 77
2019-04-01 21:00:00 8.8 7 Sudeste 14 Sudeste 0 -- -- 71
2019-04-01 20:00:00 11.8 6 Norte 16 Noroeste 0 -- -- 53
2019-04-01 19:00:00 12.5 9 Noroeste 22 Noroeste 0 -- -- 52
2019-04-01 18:00:00 14.8 13 Noroeste 25 Oeste 0 -- -- 45
2019-04-01 17:00:00 12.9 10 Noroeste 26 Oeste 0 -- -- 53
2019-04-01 16:00:00 12.2 12 Noroeste 22 Oeste 0 -- -- 58
2019-04-01 15:00:00 11.6 9 Oeste 18 Noroeste 0 -- -- 59
2019-04-01 14:00:00 10.4 10 Oeste 17 Oeste 0 -- -- 68
2019-04-01 13:00:00 9.3 2 Este 8 Noroeste 0 -- -- 70
2019-04-01 12:00:00 10.5 4 Este 12 Norte 0 -- -- 67
2019-04-01 11:00:00 9 3 Noroeste 14 Oeste 0 -- -- 73
2019-04-01 10:00:00 8.6 3 Oeste 10 Noroeste 0 -- -- 75
2019-04-01 09:00:00 6.8 5 Sur 10 Sur 0 -- -- 80
2019-04-01 08:00:00 5.8 6 Sur 17 Sur 0 -- -- 84
2019-04-01 07:00:00 5.6 13 Sur 20 Sudeste 0 -- -- 86
2019-04-01 06:00:00 5.3 13 Sur 24 Sur 0 -- -- 88
2019-04-01 05:00:00 4.4 15 Sudeste 24 Sudeste 0 -- -- 93
2019-04-01 04:00:00 4.3 15 Sudeste 21 Sudeste 0 -- -- 92
2019-04-01 03:00:00 4.2 13 Sudeste 21 Sudeste 0 -- -- 93
2019-04-01 02:00:00 4.2 14 Sudeste 23 Sudeste 0 -- -- 92
2019-04-01 01:00:00 4.4 14 Sudeste 24 Sudeste 0 -- -- 91
2019-04-01 00:00:00 4.6 13 Sudeste 23 Sudeste 0 -- -- 91
2019-03-31 23:00:00 4.5 17 Sudeste 29 Este 0 -- -- 91
2019-03-31 22:00:00 4.6 16 Sudeste 29 Sudeste 0 -- -- 91
2019-03-31 21:00:00 5.2 19 Sudeste 30 Sudeste 0 -- -- 86
2019-03-31 20:00:00 5.8 19 Este 32 Este 0 -- -- 86
2019-03-31 19:00:00 6.5 25 Sudeste 36 Sudeste 0 -- -- 84
2019-03-31 18:00:00 7.8 19 Este 31 Sudeste 0 -- -- 79
2019-03-31 17:00:00 8.2 22 Sudeste 33 Este 0 -- -- 77
2019-03-31 16:00:00 9.3 23 Sudeste 35 Sudeste 0 -- -- 69
2019-03-31 15:00:00 11.5 19 Sudeste 35 Sudeste 0 -- -- 53
2019-03-31 14:00:00 12.1 22 Sudeste 40 Sudeste 0 -- -- 47
2019-03-31 13:00:00 11.9 27 Sudeste 37 Sudeste 0 -- -- 48
2019-03-31 12:00:00 12.2 23 Sudeste 36 Sudeste 0 -- -- 48
2019-03-31 11:00:00 10.7 21 Sudeste 27 Sudeste 0 -- -- 55
2019-03-31 10:00:00 7.9 18 Sudeste 23 Sudeste 0 -- -- 65
2019-03-31 09:00:00 4.2 11 Sudeste 17 Sudeste 0 -- -- 78
2019-03-31 08:00:00 2.4 8 Sudeste 21 Sudeste 0 -- -- 84
2019-03-31 07:00:00 3.4 19 Sudeste 28 Sudeste 0 -- -- 77
2019-03-31 06:00:00 3.3 17 Sudeste 25 Sudeste 0 -- -- 72
2019-03-31 05:00:00 4 17 Sudeste 25 Sudeste 0 -- -- 66
2019-03-31 03:00:00 4.4 10 Sudeste 23 Sudeste 0 -- -- 60
2019-03-31 01:00:00 4.8 7 Sudeste 24 Sudeste 0 -- -- 56
2019-03-31 00:00:00 6.8 15 Sudeste 28 Sudeste 0 -- -- 49
2019-03-30 23:00:00 7.8 22 Sudeste 32 Sudeste 0 -- -- 44
2019-03-30 22:00:00 8.8 22 Sudeste 30 Sudeste 0 -- -- 42
2019-03-30 21:00:00 9.3 19 Sudeste 29 Sudeste 0 -- -- 39
2019-03-30 20:00:00 8.6 12 Sudeste 18 Sudeste 0 -- -- 39
2019-03-30 19:00:00 12.6 14 Sudeste 22 Sudeste 0 -- -- 31
2019-03-30 18:00:00 14.2 18 Sudeste 28 Sudeste 0 -- -- 29
2019-03-30 17:00:00 15.1 13 Sudeste 22 Este 0 -- -- 30
2019-03-30 16:00:00 14.6 13 Este 26 Sudeste 0 -- -- 30
2019-03-30 15:00:00 14.2 13 Este 26 Norte 0 -- -- 29
2019-03-30 14:00:00 14.5 13 Este 23 Sudeste 0 -- -- 29
2019-03-30 13:00:00 13.7 12 Sudeste 30 Sudeste 0 -- -- 34
2019-03-30 12:00:00 13.2 11 Sudeste 27 Este 0 -- -- 36
2019-03-30 11:00:00 13 5 Sur 18 Sur 0 -- -- 36
2019-03-30 10:00:00 11.5 8 Sur 20 Sur 0 -- -- 42
2019-03-30 09:00:00 8.5 10 Sur 24 Sur 0 -- -- 51
2019-03-30 08:00:00 5.7 14 Sur 21 Sur 0 -- -- 58
2019-03-30 07:00:00 3.5 4 Sudoeste 27 Sur 0 -- -- 67
2019-03-30 06:00:00 4.3 19 Sur 28 Sur 0 -- -- 65
2019-03-30 05:00:00 4.6 19 Sur 30 Sur 0 -- -- 65
2019-03-30 04:00:00 4.9 21 Sur 38 Sur 0 -- -- 63
2019-03-30 03:00:00 5.5 21 Sur 35 Sur 0 -- -- 60
2019-03-30 02:00:00 6.4 17 Sur 28 Sur 0 -- -- 57
2019-03-30 01:00:00 7.2 21 Sur 32 Sudeste 0 -- -- 54
2019-03-30 00:00:00 7.8 19 Sur 33 Sur 0 -- -- 52
2019-03-29 23:00:00 7.7 14 Sur 25 Sur 0 -- -- 49
2019-03-29 22:00:00 7.4 13 Sudeste 26 Sur 0 -- -- 44
2019-03-29 21:00:00 7.6 7 Sudeste 18 Sudoeste 0 -- -- 39
2019-03-29 20:00:00 9.6 10 Sur 26 Sudoeste 0 -- -- 34
2019-03-29 19:00:00 12.6 13 Sur 29 Sudoeste 0 -- -- 28
2019-03-29 18:00:00 13.8 20 Sudoeste 32 Sudoeste 0 -- -- 27
2019-03-29 17:00:00 14.1 21 Sur 37 Sur 0 -- -- 28
2019-03-29 16:00:00 14.2 18 Sur 37 Sur 0 -- -- 28
2019-03-29 15:00:00 14.2 21 Sur 32 Sur 0 -- -- 29
2019-03-29 14:00:00 13.6 23 Sur 37 Sur 0 -- -- 30
2019-03-29 13:00:00 13.7 22 Sur 36 Sur 0 -- -- 30
2019-03-29 12:00:00 13.1 19 Sudoeste 33 Sudoeste 0 -- -- 32
2019-03-29 11:00:00 11.5 23 Sudoeste 39 Sudoeste 0 -- -- 34
2019-03-29 10:00:00 10.4 22 Sudoeste 35 Sudoeste 0 -- -- 35
2019-03-29 09:00:00 9.6 16 Sur 25 Sur 0 -- -- 38
2019-03-29 08:00:00 8.2 11 Sudoeste 22 Sudoeste 0 -- -- 42
2019-03-29 07:00:00 3.9 5 Sur 15 Sur 0 -- -- 52
2019-03-29 06:00:00 4.8 8 Sur 27 Sudoeste 0 -- -- 47
2019-03-29 05:00:00 6.1 17 Sudoeste 27 Sudoeste 0 -- -- 41
2019-03-29 04:00:00 6.4 12 Sur 25 Sudoeste 0 -- -- 41
2019-03-29 03:00:00 7 15 Sudoeste 29 Sur 0 -- -- 41
2019-03-29 02:00:00 7.3 14 Sur 27 Sur 0 -- -- 45
2019-03-29 01:00:00 6.6 17 Sudeste 22 Sudeste 0 -- -- 50
2019-03-29 00:00:00 6 14 Sudeste 24 Sudeste 0 -- -- 53
2019-03-28 23:00:00 4.9 14 Sudeste 27 Sudeste 0 -- -- 52
2019-03-28 22:00:00 6.8 15 Sudeste 24 Sudeste 0 -- -- 45
2019-03-28 21:00:00 7.8 11 Sudeste 20 Sudeste 0 -- -- 41
2019-03-28 20:00:00 11.2 12 Sur 22 Sudeste 0 -- -- 31
2019-03-28 19:00:00 14.5 18 Este 26 Sudeste 0 -- -- 26
2019-03-28 18:00:00 16.2 17 Este 29 Nordeste 0 -- -- 24
2019-03-28 17:00:00 16.2 14 Este 27 Nordeste 0 -- -- 24
2019-03-28 16:00:00 16.5 16 Este 30 Nordeste 0 -- -- 25
2019-03-28 15:00:00 15.5 12 Este 27 Este 0 -- -- 26
2019-03-28 14:00:00 15.1 9 Nordeste 22 Nordeste 0 -- -- 26
2019-03-28 13:00:00 15 7 Sudeste 15 Este 0 -- -- 27
2019-03-28 12:00:00 14.2 4 Este 11 Sudeste 0 -- -- 26
2019-03-28 11:00:00 12.2 5 Nordeste 12 Sudeste 0 -- -- 29
2019-03-28 10:00:00 10.1 9 Sudeste 22 Sudeste 0 -- -- 36
2019-03-28 09:00:00 7 18 Sudeste 28 Sudeste 0 -- -- 45
2019-03-28 08:00:00 3.5 15 Sudeste 30 Sudeste 0 -- -- 58
2019-03-28 07:00:00 0.4 15 Sudeste 23 Sudeste 0 -- -- 65
2019-03-28 06:00:00 1.2 19 Sudeste 23 Sudeste 0 -- -- 60
2019-03-28 05:00:00 1.2 17 Sudeste 21 Sudeste 0 -- -- 58
2019-03-28 04:00:00 -0.6 9 Sudeste 21 Sur 0 -- -- 62
2019-03-28 03:00:00 3.3 17 Sur 26 Sudeste 0 -- -- 44
2019-03-28 02:00:00 3.8 15 Sudeste 27 Sur 0 -- -- 41
2019-03-28 01:00:00 4.4 19 Sudeste 25 Sudeste 0 -- -- 37
2019-03-28 00:00:00 4.5 18 Sudeste 28 Sudeste 0 -- -- 36
2019-03-27 23:00:00 5.3 18 Sudeste 23 Sudeste 0 -- -- 38
2019-03-27 22:00:00 5.5 18 Sudeste 22 Sudeste 0 -- -- 38
2019-03-27 21:00:00 6.8 15 Sudeste 22 Este 0 -- -- 36
2019-03-27 20:00:00 8.6 13 Sudeste 30 Este 0 -- -- 30
2019-03-27 19:00:00 13 25 Sudeste 39 Este 0 -- -- 21
2019-03-27 18:00:00 14.8 26 Este 39 Sudeste 0 -- -- 19
2019-03-27 17:00:00 16.5 13 Este 29 Sudeste 0 -- -- 17
2019-03-27 16:00:00 16.3 15 Este 32 Nordeste 0 -- -- 17
2019-03-27 15:00:00 15.4 14 Este 34 Sudeste 0 -- -- 19
2019-03-27 14:00:00 14.7 11 Este 27 Este 0 -- -- 17
2019-03-27 13:00:00 14 17 Este 28 Este 0 -- -- 22
2019-03-27 12:00:00 13.3 12 Este 20 Este 0 -- -- 22
2019-03-27 11:00:00 12.3 10 Este 19 Sudeste 0 -- -- 28
2019-03-27 10:00:00 10.6 13 Sudeste 23 Sudeste 0 -- -- 29
2019-03-27 09:00:00 7 16 Sudeste 25 Sudeste 0 -- -- 36
2019-03-27 08:00:00 3.5 18 Sudeste 26 Sudeste 0 -- -- 43
2019-03-27 07:00:00 0.3 19 Sudeste 25 Sudeste 0 -- -- 51
2019-03-27 06:00:00 -0.4 21 Sudeste 30 Sudeste 0 -- -- 54
2019-03-27 05:00:00 0.2 20 Sudeste 25 Sudeste 0 -- -- 49
2019-03-27 04:00:00 0.8 17 Sudeste 28 Sudeste 0 -- -- 45
2019-03-27 03:00:00 -0.5 10 Sudeste 25 Sur 0 -- -- 47
2019-03-27 02:00:00 2.6 22 Sudeste 35 Sudeste 0 -- -- 38
2019-03-27 01:00:00 2.9 18 Sur 25 Sur 0 -- -- 36
2019-03-27 00:00:00 3.9 19 Sur 25 Sur 0 -- -- 32